createdAt,value
2016-04-27T00:00:33.700Z,3.1
2016-04-27T00:01:33.656Z,3.1
2016-04-27T00:02:33.643Z,3.12
2016-04-27T00:03:33.615Z,3.16
2016-04-27T00:04:33.571Z,3.16
2016-04-27T00:05:33.542Z,3.07
2016-04-27T00:06:33.513Z,3.1
2016-04-27T00:07:33.484Z,3.09
2016-04-27T00:08:33.472Z,3.15
2016-04-27T00:09:33.412Z,3.12
2016-04-27T00:10:33.383Z,3.12
2016-04-27T00:11:33.354Z,3.18
2016-04-27T00:12:33.326Z,3.13
2016-04-27T00:13:33.314Z,3.1
2016-04-27T00:14:33.269Z,3.13
2016-04-27T00:15:33.240Z,3.15
2016-04-27T00:16:33.211Z,3.1
2016-04-27T00:17:33.167Z,3.18
2016-04-27T00:18:33.139Z,3.05
2016-04-27T00:19:33.110Z,3.13
2016-04-27T00:20:33.083Z,3.12
2016-04-27T00:21:34.506Z,3.13
2016-04-27T00:22:34.166Z,3.1
2016-04-27T00:23:32.981Z,3.1
2016-04-27T00:24:32.952Z,3.15
2016-04-27T00:25:32.924Z,3.18
2016-04-27T00:26:32.894Z,3.15
2016-04-27T00:27:32.866Z,3.07
2016-04-27T00:28:32.838Z,3.2
2016-04-27T00:29:32.794Z,3.18
2016-04-27T00:30:32.765Z,3.18
2016-04-27T00:31:32.752Z,3.15
2016-04-27T00:32:32.708Z,3.16
2016-04-27T00:33:32.680Z,3.18
2016-04-27T00:34:32.666Z,3.09
2016-04-27T00:35:32.623Z,3.16
2016-04-27T00:36:32.468Z,3.18
2016-04-27T00:37:32.565Z,3.24
2016-04-27T00:38:32.537Z,3.2
2016-04-27T00:39:32.492Z,3.2
2016-04-27T00:40:32.462Z,3.18
2016-04-27T00:41:32.626Z,3.2
2016-04-27T00:42:32.353Z,3.16
2016-04-27T00:43:32.377Z,3.23
2016-04-27T00:44:35.879Z,3.24
2016-04-27T00:45:32.324Z,3.27
2016-04-27T00:46:32.280Z,3.2
2016-04-27T00:47:32.251Z,3.3
2016-04-27T00:48:32.207Z,3.24
2016-04-27T00:49:32.179Z,3.28
2016-04-27T00:50:32.151Z,3.33
2016-04-27T00:51:34.231Z,3.3
2016-04-27T00:52:32.093Z,3.31
2016-04-27T00:53:32.064Z,3.27
2016-04-27T00:54:32.019Z,3.31
2016-04-27T00:55:31.992Z,3.34
2016-04-27T00:56:31.964Z,3.39
2016-04-27T00:57:31.966Z,3.39
2016-04-27T00:58:31.921Z,3.34
2016-04-27T00:59:31.878Z,3.33
2016-04-27T01:00:31.849Z,3.4
2016-04-27T01:01:31.805Z,3.36
2016-04-27T01:02:31.777Z,3.34
2016-04-27T01:03:31.747Z,3.33
2016-04-27T01:04:31.719Z,3.43
2016-04-27T01:05:31.690Z,3.31
2016-04-27T01:06:31.788Z,3.28
2016-04-27T01:07:31.633Z,3.39
2016-04-27T01:08:31.620Z,3.42
2016-04-27T01:09:31.577Z,3.31
2016-04-27T01:10:31.532Z,3.43
2016-04-27T01:11:31.503Z,3.43
2016-04-27T01:12:31.474Z,3.34
2016-04-27T01:13:31.446Z,3.44
2016-04-27T01:14:31.418Z,3.44
2016-04-27T01:15:31.404Z,3.49
2016-04-27T01:16:31.345Z,3.43
2016-04-27T01:17:31.332Z,3.49
2016-04-27T01:18:31.303Z,3.43
2016-04-27T01:19:31.275Z,3.44
2016-04-27T01:20:31.246Z,3.44
2016-04-27T01:21:31.045Z,3.54
2016-04-27T01:22:31.195Z,3.44
2016-04-27T01:23:31.152Z,3.44
2016-04-27T01:24:31.108Z,3.54
2016-04-27T01:25:31.080Z,3.54
2016-04-27T01:26:31.052Z,3.53
2016-04-27T01:27:31.022Z,3.54
2016-04-27T01:28:30.994Z,3.49
2016-04-27T01:29:30.950Z,3.57
2016-04-27T01:30:30.922Z,3.54
2016-04-27T01:31:30.908Z,3.47
2016-04-27T01:32:30.864Z,3.42
2016-04-27T01:33:30.836Z,3.44
2016-04-27T01:34:30.792Z,3.39
2016-04-27T01:35:30.779Z,3.42
2016-04-27T01:36:30.750Z,3.24
2016-04-27T01:37:30.707Z,3.34
2016-04-27T01:38:30.677Z,3.33
2016-04-27T01:39:30.649Z,3.25
2016-04-27T01:40:30.620Z,3.27
2016-04-27T01:41:30.592Z,3.25
2016-04-27T01:42:30.563Z,3.25
2016-04-27T01:43:30.534Z,3.21
2016-04-27T01:44:30.506Z,3.24
2016-04-27T01:45:30.478Z,3.23
2016-04-27T01:46:30.449Z,3.24
2016-04-27T01:47:30.420Z,3.24
2016-04-27T01:48:30.376Z,3.2
2016-04-27T01:49:30.349Z,3.23
2016-04-27T01:50:30.321Z,3.21
2016-04-27T01:51:30.026Z,3.2
2016-04-27T01:52:30.263Z,3.33
2016-04-27T01:53:30.251Z,3.2
2016-04-27T01:54:30.221Z,3.16
2016-04-27T01:55:30.176Z,3.2
2016-04-27T01:56:30.134Z,3.18
2016-04-27T01:57:30.104Z,3.18
2016-04-27T01:58:30.076Z,3.2
2016-04-27T01:59:30.047Z,3.21
2016-04-27T02:00:30.003Z,3.27
2016-04-27T02:01:29.850Z,3.3
2016-04-27T02:02:29.962Z,3.34
2016-04-27T02:03:29.933Z,3.34
2016-04-27T02:04:29.889Z,3.24
2016-04-27T02:05:29.861Z,3.31
2016-04-27T02:06:30.957Z,3.3
2016-04-27T02:07:29.803Z,3.34
2016-04-27T02:08:29.759Z,3.3
2016-04-27T02:09:29.731Z,3.3
2016-04-27T02:10:29.703Z,3.3
2016-04-27T02:11:29.674Z,3.21
2016-04-27T02:12:29.644Z,3.31
2016-04-27T02:13:29.616Z,3.3
2016-04-27T02:14:29.588Z,3.3
2016-04-27T02:15:29.559Z,3.39
2016-04-27T02:16:29.530Z,3.23
2016-04-27T02:17:29.486Z,3.25
2016-04-27T02:18:29.474Z,3.25
2016-04-27T02:19:29.429Z,3.23
2016-04-27T02:20:29.401Z,3.27
2016-04-27T02:21:29.451Z,3.31
2016-04-27T02:22:29.344Z,3.25
2016-04-27T02:23:29.315Z,3.25
2016-04-27T02:24:29.271Z,3.24
2016-04-27T02:25:29.243Z,3.23
2016-04-27T02:26:29.230Z,3.28
2016-04-27T02:27:29.200Z,3.21
2016-04-27T02:28:29.172Z,3.24
2016-04-27T02:29:29.129Z,3.36
2016-04-27T02:30:29.100Z,3.23
2016-04-27T02:31:29.070Z,3.28
2016-04-27T02:32:29.042Z,3.31
2016-04-27T02:33:29.014Z,3.31
2016-04-27T02:34:28.970Z,3.34
2016-04-27T02:35:28.941Z,3.39
2016-04-27T02:36:28.913Z,3.42
2016-04-27T02:37:28.883Z,3.36
2016-04-27T02:38:28.856Z,3.34
2016-04-27T02:39:28.827Z,3.33
2016-04-27T02:40:28.798Z,3.33
2016-04-27T02:41:28.770Z,3.39
2016-04-27T02:42:28.749Z,3.36
2016-04-27T02:43:28.762Z,3.39
2016-04-27T02:44:28.759Z,3.44
2016-04-27T02:45:28.774Z,3.33
2016-04-27T02:46:28.786Z,3.4
2016-04-27T02:47:28.794Z,3.47
2016-04-27T02:48:28.782Z,3.44
2016-04-27T02:49:28.769Z,3.43
2016-04-27T02:50:28.756Z,3.47
2016-04-27T02:51:29.008Z,3.49
2016-04-27T02:52:28.727Z,3.43
2016-04-27T02:53:28.689Z,3.42
2016-04-27T02:54:28.665Z,3.46
2016-04-27T02:55:28.642Z,3.49
2016-04-27T02:56:28.618Z,3.49
2016-04-27T02:57:28.298Z,3.49
2016-04-27T02:58:28.568Z,3.44
2016-04-27T02:59:28.542Z,3.58
2016-04-27T03:00:28.515Z,3.46
2016-04-27T03:01:28.472Z,3.52
2016-04-27T03:02:28.477Z,3.53
2016-04-27T03:03:28.480Z,3.57
2016-04-27T03:04:28.391Z,3.53
2016-04-27T03:05:28.378Z,3.52
2016-04-27T03:06:28.460Z,3.57
2016-04-27T03:07:28.838Z,3.57
2016-04-27T03:08:28.279Z,3.62
2016-04-27T03:09:28.236Z,3.54
2016-04-27T03:10:28.206Z,3.65
2016-04-27T03:11:28.178Z,3.54
2016-04-27T03:12:28.151Z,3.62
2016-04-27T03:13:28.123Z,3.6
2016-04-27T03:14:28.078Z,3.65
2016-04-27T03:15:28.049Z,3.67
2016-04-27T03:16:28.036Z,3.65
2016-04-27T03:17:27.992Z,3.75
2016-04-27T03:18:27.963Z,3.68
2016-04-27T03:19:27.950Z,3.75
2016-04-27T03:20:27.922Z,3.7
2016-04-27T03:21:27.769Z,3.76
2016-04-27T03:22:27.849Z,3.72
2016-04-27T03:23:27.821Z,3.79
2016-04-27T03:24:27.792Z,3.72
2016-04-27T03:25:27.764Z,3.71
2016-04-27T03:26:27.719Z,3.76
2016-04-27T03:27:27.690Z,3.9
2016-04-27T03:28:27.663Z,3.76
2016-04-27T03:29:27.633Z,3.82
2016-04-27T03:30:27.605Z,3.83
2016-04-27T03:31:27.561Z,3.76
2016-04-27T03:32:27.548Z,3.85
2016-04-27T03:33:27.519Z,3.89
2016-04-27T03:34:27.491Z,3.96
2016-04-27T03:35:27.446Z,3.85
2016-04-27T03:36:29.637Z,3.86
2016-04-27T03:37:27.640Z,3.89
2016-04-27T03:38:27.376Z,3.94
2016-04-27T03:39:27.364Z,3.89
2016-04-27T03:40:27.304Z,4.01
2016-04-27T03:41:27.290Z,4.01
2016-04-27T03:42:27.262Z,3.9
2016-04-27T03:43:27.234Z,3.98
2016-04-27T03:44:27.189Z,4.08
2016-04-27T03:45:27.192Z,4.04
2016-04-27T03:46:27.133Z,4.08
2016-04-27T03:47:27.089Z,4
2016-04-27T03:48:27.091Z,4.07
2016-04-27T03:49:27.047Z,4.12
2016-04-27T03:50:27.002Z,4.1
2016-04-27T03:51:28.459Z,4.12
2016-04-27T03:52:27.305Z,4.07
2016-04-27T03:53:26.933Z,4.06
2016-04-27T03:54:26.873Z,4.15
2016-04-27T03:55:26.860Z,4.1
2016-04-27T03:56:26.831Z,4.14
2016-04-27T03:57:26.802Z,4.18
2016-04-27T03:58:26.758Z,4.24
2016-04-27T03:59:26.746Z,4.19
2016-04-27T04:00:26.716Z,4.32
2016-04-27T04:01:26.688Z,4.33
2016-04-27T04:02:26.644Z,4.36
2016-04-27T04:03:26.632Z,4.37
2016-04-27T04:04:26.587Z,4.34
2016-04-27T04:05:26.560Z,4.33
2016-04-27T04:06:28.827Z,4.29
2016-04-27T04:07:27.096Z,4.25
2016-04-27T04:08:26.474Z,4.32
2016-04-27T04:09:26.446Z,4.19
2016-04-27T04:10:26.416Z,4.32
2016-04-27T04:11:26.389Z,4.19
2016-04-27T04:12:26.360Z,4.32
2016-04-27T04:13:26.315Z,4.37
2016-04-27T04:14:26.287Z,4.29
2016-04-27T04:15:26.274Z,4.26
2016-04-27T04:16:26.229Z,4.28
2016-04-27T04:17:26.202Z,4.19
2016-04-27T04:18:26.173Z,4.26
2016-04-27T04:19:26.160Z,4.28
2016-04-27T04:20:26.116Z,4.25
2016-04-27T04:21:26.712Z,4.22
2016-04-27T04:22:26.063Z,4.18
2016-04-27T04:23:26.018Z,4.24
2016-04-27T04:24:26.005Z,4.28
2016-04-27T04:25:25.976Z,4.32
2016-04-27T04:26:25.933Z,4.33
2016-04-27T04:27:25.919Z,4.25
2016-04-27T04:28:25.875Z,4.29
2016-04-27T04:29:25.878Z,4.21
2016-04-27T04:30:25.819Z,4.34
2016-04-27T04:31:25.774Z,4.29
2016-04-27T04:32:25.761Z,4.34
2016-04-27T04:33:25.732Z,4.37
2016-04-27T04:34:25.704Z,4.28
2016-04-27T04:35:25.675Z,4.32
2016-04-27T04:36:25.521Z,4.42
2016-04-27T04:37:28.743Z,4.32
2016-04-27T04:38:25.590Z,4.29
2016-04-27T04:39:25.561Z,4.32
2016-04-27T04:40:25.532Z,4.29
2016-04-27T04:41:25.486Z,4.36
2016-04-27T04:42:25.457Z,4.43
2016-04-27T04:43:25.428Z,4.5
2016-04-27T04:44:25.401Z,4.36
2016-04-27T04:45:25.372Z,4.43
2016-04-27T04:46:25.343Z,4.4
2016-04-27T04:47:25.314Z,4.5
2016-04-27T04:48:25.286Z,4.44
2016-04-27T04:49:25.258Z,4.46
2016-04-27T04:50:25.228Z,4.4
2016-04-27T04:51:26.528Z,4.4
2016-04-27T04:52:25.156Z,4.4
2016-04-27T04:53:25.127Z,4.36
2016-04-27T04:54:25.100Z,4.29
2016-04-27T04:55:25.086Z,4.37
2016-04-27T04:56:26.904Z,4.29
2016-04-27T04:57:25.013Z,4.37
2016-04-27T04:58:25.000Z,4.29
2016-04-27T04:59:24.955Z,4.29
2016-04-27T05:00:24.927Z,4.32
2016-04-27T05:01:24.900Z,4.37
2016-04-27T05:02:24.871Z,4.37
2016-04-27T05:03:24.858Z,4.32
2016-04-27T05:04:24.813Z,4.32
2016-04-27T05:05:24.785Z,4.37
2016-04-27T05:06:24.757Z,4.4
2016-04-27T05:07:24.727Z,4.46
2016-04-27T05:08:24.715Z,4.58
2016-04-27T05:09:24.654Z,4.57
2016-04-27T05:10:24.626Z,4.64
2016-04-27T05:11:26.442Z,4.61
2016-04-27T05:12:24.585Z,4.67
2016-04-27T05:13:24.541Z,4.64
2016-04-27T05:14:24.512Z,4.67
2016-04-27T05:15:24.484Z,4.67
2016-04-27T05:16:24.455Z,4.62
2016-04-27T05:17:24.426Z,4.52
2016-04-27T05:18:24.397Z,4.62
2016-04-27T05:19:24.384Z,4.59
2016-04-27T05:20:24.325Z,4.65
2016-04-27T05:21:24.312Z,4.59
2016-04-27T05:22:24.284Z,4.58
2016-04-27T05:23:24.255Z,4.67
2016-04-27T05:24:24.242Z,4.54
2016-04-27T05:25:24.197Z,4.64
2016-04-27T05:26:24.153Z,4.59
2016-04-27T05:27:24.141Z,4.69
2016-04-27T05:28:24.112Z,4.73
2016-04-27T05:29:24.084Z,4.73
2016-04-27T05:30:24.039Z,4.76
2016-04-27T05:31:24.011Z,4.79
2016-04-27T05:32:23.999Z,4.72
2016-04-27T05:33:23.969Z,4.75
2016-04-27T05:34:23.925Z,4.76
2016-04-27T05:35:23.912Z,4.72
2016-04-27T05:36:23.868Z,4.7
2016-04-27T05:37:23.683Z,4.69
2016-04-27T05:38:23.811Z,4.62
2016-04-27T05:39:23.782Z,4.58
2016-04-27T05:40:23.785Z,4.62
2016-04-27T05:41:23.710Z,4.54
2016-04-27T05:42:23.696Z,4.57
2016-04-27T05:43:23.668Z,4.64
2016-04-27T05:44:23.639Z,4.59
2016-04-27T05:45:23.611Z,4.55
2016-04-27T05:46:23.598Z,4.54
2016-04-27T05:47:23.539Z,4.69
2016-04-27T05:48:23.526Z,4.64
2016-04-27T05:49:23.481Z,4.59
2016-04-27T05:50:23.453Z,4.65
2016-04-27T05:51:23.424Z,4.64
2016-04-27T05:52:24.020Z,4.65
2016-04-27T05:53:23.367Z,4.7
2016-04-27T05:54:23.354Z,4.64
2016-04-27T05:55:23.310Z,4.7
2016-04-27T05:56:23.266Z,4.77
2016-04-27T05:57:23.253Z,4.76
2016-04-27T05:58:23.240Z,4.72
2016-04-27T05:59:23.211Z,4.76
2016-04-27T06:00:23.152Z,4.76
2016-04-27T06:01:23.169Z,4.83
2016-04-27T06:02:23.110Z,4.8
2016-04-27T06:03:23.082Z,4.79
2016-04-27T06:04:23.053Z,4.83
2016-04-27T06:05:23.024Z,4.89
2016-04-27T06:06:22.996Z,4.91
2016-04-27T06:07:22.638Z,4.95
2016-04-27T06:08:22.923Z,5.02
2016-04-27T06:09:22.894Z,4.94
2016-04-27T06:10:22.881Z,4.98
2016-04-27T06:11:22.854Z,5.01
2016-04-27T06:12:22.824Z,5.05
2016-04-27T06:13:22.796Z,5.12
2016-04-27T06:14:22.783Z,5.1
2016-04-27T06:15:22.739Z,5.13
2016-04-27T06:16:22.695Z,5.07
2016-04-27T06:17:22.665Z,5.13
2016-04-27T06:18:22.637Z,5.07
2016-04-27T06:19:22.609Z,5.01
2016-04-27T06:20:22.564Z,5.2
2016-04-27T06:21:22.552Z,5.17
2016-04-27T06:22:23.054Z,5.23
2016-04-27T06:23:22.495Z,5.25
2016-04-27T06:24:22.451Z,5.27
2016-04-27T06:25:22.469Z,5.34
2016-04-27T06:26:22.409Z,5.31
2016-04-27T06:27:22.380Z,5.52
2016-04-27T06:28:22.352Z,5.48
2016-04-27T06:29:22.323Z,5.41
2016-04-27T06:30:22.294Z,5.37
2016-04-27T06:31:22.250Z,5.32
2016-04-27T06:32:22.222Z,5.22
2016-04-27T06:33:22.193Z,5.3
2016-04-27T06:34:22.165Z,5.23
2016-04-27T06:35:22.136Z,5.17
2016-04-27T06:36:22.107Z,5.23
2016-04-27T06:37:22.376Z,5.22
2016-04-27T06:38:22.050Z,5.19
2016-04-27T06:39:22.022Z,5.16
2016-04-27T06:40:21.993Z,5.27
2016-04-27T06:41:21.965Z,5.27
2016-04-27T06:42:21.937Z,5.28
2016-04-27T06:43:21.907Z,5.31
2016-04-27T06:44:21.895Z,5.37
2016-04-27T06:45:21.851Z,5.43
2016-04-27T06:46:21.822Z,5.35
2016-04-27T06:47:21.793Z,5.43
2016-04-27T06:48:21.765Z,5.34
2016-04-27T06:49:21.737Z,5.34
2016-04-27T06:50:21.709Z,5.4
2016-04-27T06:51:21.679Z,5.32
2016-04-27T06:52:21.494Z,5.3
2016-04-27T06:53:21.638Z,5.43
2016-04-27T06:54:21.578Z,5.4
2016-04-27T06:55:21.597Z,5.48
2016-04-27T06:56:22.286Z,5.55
2016-04-27T06:57:21.508Z,5.56
2016-04-27T06:58:21.495Z,5.52
2016-04-27T06:59:21.467Z,5.6
2016-04-27T07:00:21.422Z,5.57
2016-04-27T07:01:21.394Z,5.64
2016-04-27T07:02:21.350Z,5.71
2016-04-27T07:03:21.336Z,5.71
2016-04-27T07:04:21.308Z,5.86
2016-04-27T07:05:21.294Z,5.88
2016-04-27T07:06:21.251Z,5.86
2016-04-27T07:07:21.097Z,5.74
2016-04-27T07:08:21.194Z,5.82
2016-04-27T07:09:21.166Z,5.67
2016-04-27T07:10:21.137Z,5.67
2016-04-27T07:11:21.124Z,5.74
2016-04-27T07:12:21.080Z,5.73
2016-04-27T07:13:21.051Z,5.6
2016-04-27T07:14:21.023Z,5.55
2016-04-27T07:15:20.993Z,5.56
2016-04-27T07:16:20.965Z,5.55
2016-04-27T07:17:20.937Z,5.56
2016-04-27T07:18:20.909Z,5.6
2016-04-27T07:19:20.880Z,5.5
2016-04-27T07:20:20.851Z,5.53
2016-04-27T07:21:20.838Z,5.48
2016-04-27T07:22:21.294Z,5.41
2016-04-27T07:23:23.484Z,5.5
2016-04-27T07:24:20.736Z,5.59
2016-04-27T07:25:20.724Z,5.55
2016-04-27T07:26:20.680Z,5.55
2016-04-27T07:27:20.650Z,5.55
2016-04-27T07:28:20.623Z,5.64
2016-04-27T07:29:20.609Z,5.67
2016-04-27T07:30:20.565Z,5.78
2016-04-27T07:31:20.553Z,5.78
2016-04-27T07:32:20.508Z,5.66
2016-04-27T07:33:20.495Z,5.66
2016-04-27T07:34:20.452Z,5.55
2016-04-27T07:35:20.438Z,5.57
2016-04-27T07:36:20.394Z,5.53
2016-04-27T07:37:21.131Z,5.55
2016-04-27T07:38:20.337Z,5.56
2016-04-27T07:39:20.324Z,5.56
2016-04-27T07:40:20.296Z,5.6
2016-04-27T07:41:20.251Z,5.71
2016-04-27T07:42:20.223Z,5.73
2016-04-27T07:43:20.194Z,5.75
2016-04-27T07:44:20.166Z,5.64
2016-04-27T07:45:20.152Z,5.55
2016-04-27T07:46:20.108Z,5.49
2016-04-27T07:47:20.080Z,5.6
2016-04-27T07:48:20.068Z,5.67
2016-04-27T07:49:20.038Z,5.57
2016-04-27T07:50:20.010Z,5.52
2016-04-27T07:51:19.981Z,5.56
2016-04-27T07:52:20.390Z,5.6
2016-04-27T07:53:20.049Z,5.77
2016-04-27T07:54:19.880Z,5.83
2016-04-27T07:55:19.851Z,6.1
2016-04-27T07:56:19.839Z,6.38
2016-04-27T07:57:19.809Z,6.41
2016-04-27T07:58:19.797Z,6.36
2016-04-27T07:59:19.752Z,6.35
2016-04-27T08:00:19.724Z,6.46
2016-04-27T08:01:19.695Z,6.84
2016-04-27T08:02:19.667Z,7.38
2016-04-27T08:03:19.639Z,7.31
2016-04-27T08:04:19.610Z,7.22
2016-04-27T08:05:19.581Z,7.67
2016-04-27T08:06:19.552Z,8.2
2016-04-27T08:07:22.166Z,8.47
2016-04-27T08:08:20.105Z,8.71
2016-04-27T08:09:19.905Z,9.1
2016-04-27T08:10:19.454Z,9.3
2016-04-27T08:11:19.426Z,9.85
2016-04-27T08:12:19.429Z,10.8
2016-04-27T08:13:19.384Z,11.74
2016-04-27T08:14:19.355Z,11.94
2016-04-27T08:15:19.343Z,12.01
2016-04-27T08:16:19.315Z,12.67
2016-04-27T08:17:19.301Z,13.21
2016-04-27T08:18:19.257Z,13.54
2016-04-27T08:19:19.259Z,13.98
2016-04-27T08:20:19.232Z,13.56
2016-04-27T08:21:19.234Z,13.63
2016-04-27T08:22:20.893Z,13.56
2016-04-27T08:23:18.865Z,13.18
2016-04-27T08:24:19.164Z,12.74
2016-04-27T08:25:19.135Z,12.44
2016-04-27T08:26:19.106Z,11.99
2016-04-27T08:27:19.109Z,11.61
2016-04-27T08:28:19.080Z,11.38
2016-04-27T08:29:23.365Z,11.44
2016-04-27T08:30:22.742Z,11.52
2016-04-27T08:31:22.823Z,11.36
2016-04-27T08:32:19.483Z,11.53
2016-04-27T08:33:21.841Z,11.32
2016-04-27T08:34:23.064Z,11.25
2016-04-27T08:35:22.878Z,11.02
2016-04-27T08:36:22.583Z,11.41
2016-04-27T08:37:23.603Z,11.53
2016-04-27T08:38:23.339Z,11.31
2016-04-27T08:39:22.952Z,11.71
2016-04-27T08:40:23.094Z,11.44
2016-04-27T08:41:22.785Z,11.35
2016-04-27T08:42:22.741Z,11.34
2016-04-27T08:43:22.680Z,11.38
2016-04-27T08:44:22.949Z,11.11
2016-04-27T08:45:22.889Z,11.13
2016-04-27T08:46:22.611Z,10.88
2016-04-27T08:47:22.520Z,10.65
2016-04-27T08:48:18.662Z,10.66
2016-04-27T08:49:22.854Z,10.44
2016-04-27T08:50:22.168Z,10.7
2016-04-27T08:51:22.390Z,10.71
2016-04-27T08:52:23.159Z,11.17
2016-04-27T08:53:18.582Z,10.89
2016-04-27T08:54:22.242Z,10.89
2016-04-27T08:55:22.384Z,11.07
2016-04-27T08:56:22.326Z,10.77
2016-04-27T08:57:18.468Z,10.53
2016-04-27T08:58:18.439Z,10.39
2016-04-27T08:59:18.428Z,10.33
2016-04-27T09:00:18.383Z,10.43
2016-04-27T09:01:18.370Z,10.77
2016-04-27T09:02:18.341Z,10.63
2016-04-27T09:03:18.328Z,10.63
2016-04-27T09:04:18.300Z,10.63
2016-04-27T09:05:18.272Z,10.47
2016-04-27T09:06:18.258Z,10.36
2016-04-27T09:07:22.183Z,10.07
2016-04-27T09:08:18.920Z,9.96
2016-04-27T09:09:18.188Z,9.88
2016-04-27T09:10:18.160Z,9.89
2016-04-27T09:11:18.147Z,9.97
2016-04-27T09:12:18.119Z,9.78
2016-04-27T09:13:18.090Z,9.75
2016-04-27T09:14:18.076Z,9.78
2016-04-27T09:15:18.048Z,9.66
2016-04-27T09:16:18.051Z,9.78
2016-04-27T09:17:18.022Z,9.71
2016-04-27T09:18:17.979Z,9.67
2016-04-27T09:19:17.949Z,9.61
2016-04-27T09:20:17.937Z,9.68
2016-04-27T09:21:17.908Z,9.67
2016-04-27T09:22:17.770Z,9.57
2016-04-27T09:23:17.898Z,9.48
2016-04-27T09:24:17.823Z,9.5
2016-04-27T09:25:17.809Z,9.35
2016-04-27T09:26:17.781Z,9.52
2016-04-27T09:27:17.783Z,9.28
2016-04-27T09:28:17.740Z,9.42
2016-04-27T09:29:17.742Z,9.25
2016-04-27T09:30:17.698Z,9.28
2016-04-27T09:31:17.669Z,9.56
2016-04-27T09:32:17.641Z,9.82
2016-04-27T09:33:17.612Z,9.73
2016-04-27T09:34:17.600Z,9.78
2016-04-27T09:35:17.570Z,9.81
2016-04-27T09:36:17.542Z,9.67
2016-04-27T09:37:17.530Z,9.81
2016-04-27T09:38:17.610Z,9.56
2016-04-27T09:39:17.472Z,9.56
2016-04-27T09:40:17.443Z,9.49
2016-04-27T09:41:17.431Z,9.25
2016-04-27T09:42:17.418Z,9.18
2016-04-27T09:43:17.374Z,9.09
2016-04-27T09:44:17.361Z,8.99
2016-04-27T09:45:17.332Z,9.06
2016-04-27T09:46:17.304Z,8.97
2016-04-27T09:47:17.275Z,9.3
2016-04-27T09:48:17.262Z,9.48
2016-04-27T09:49:17.233Z,9.63
2016-04-27T09:50:17.205Z,9.89
2016-04-27T09:51:17.193Z,10.14
2016-04-27T09:52:17.038Z,10.26
2016-04-27T09:53:17.198Z,10.4
2016-04-27T09:54:17.107Z,10.39
2016-04-27T09:55:17.078Z,10.22
2016-04-27T09:56:17.064Z,10.21
2016-04-27T09:57:17.037Z,10.33
2016-04-27T09:58:17.023Z,10.47
2016-04-27T09:59:16.823Z,10.63
2016-04-27T10:00:16.998Z,10.62
2016-04-27T10:01:16.953Z,10.46
2016-04-27T10:02:16.909Z,10.32
2016-04-27T10:03:16.881Z,10.04
2016-04-27T10:04:16.867Z,10.03
2016-04-27T10:05:16.855Z,9.86
2016-04-27T10:06:16.826Z,9.76
2016-04-27T10:07:17.298Z,9.79
2016-04-27T10:08:17.097Z,9.79
2016-04-27T10:09:16.755Z,9.7
2016-04-27T10:10:16.728Z,9.67
2016-04-27T10:11:16.714Z,9.66
2016-04-27T10:12:16.685Z,9.66
2016-04-27T10:13:16.689Z,9.73
2016-04-27T10:14:16.644Z,9.78
2016-04-27T10:15:16.616Z,9.79
2016-04-27T10:16:16.587Z,10.01
2016-04-27T10:17:16.575Z,10.17
2016-04-27T10:18:16.546Z,10.3
2016-04-27T10:19:16.502Z,10.19
2016-04-27T10:20:16.505Z,10.52
2016-04-27T10:21:16.460Z,10.68
2016-04-27T10:22:16.311Z,10.52
2016-04-27T10:23:17.155Z,10.86
2016-04-27T10:24:16.392Z,10.96
2016-04-27T10:25:16.363Z,11.2
2016-04-27T10:26:16.351Z,11.14
2016-04-27T10:27:16.322Z,11.17
2016-04-27T10:28:16.170Z,11.19
2016-04-27T10:29:16.282Z,11.07
2016-04-27T10:30:16.268Z,11.09
2016-04-27T10:31:16.084Z,11.09
2016-04-27T10:32:16.211Z,11.28
2016-04-27T10:33:16.183Z,11.29
2016-04-27T10:34:16.170Z,11.39
2016-04-27T10:35:16.142Z,11.32
2016-04-27T10:36:16.128Z,11.28
2016-04-27T10:37:16.100Z,11.36
2016-04-27T10:38:16.228Z,11.65
2016-04-27T10:39:16.058Z,11.82
2016-04-27T10:40:16.030Z,12.08
2016-04-27T10:41:16.000Z,11.74
2016-04-27T10:42:15.989Z,11.53
2016-04-27T10:43:15.975Z,11.53
2016-04-27T10:44:15.947Z,11.59
2016-04-27T10:45:15.761Z,11.56
2016-04-27T10:46:15.889Z,11.25
2016-04-27T10:47:15.877Z,11.11
2016-04-27T10:48:15.849Z,11.27
2016-04-27T10:49:15.851Z,11.27
2016-04-27T10:50:15.807Z,11.38
2016-04-27T10:51:15.778Z,11.39
2016-04-27T10:52:15.749Z,11.43
2016-04-27T10:53:16.440Z,11.56
2016-04-27T10:54:15.693Z,11.53
2016-04-27T10:55:15.680Z,11.93
2016-04-27T10:56:15.682Z,11.96
2016-04-27T10:57:15.637Z,11.9
2016-04-27T10:58:15.610Z,11.74
2016-04-27T10:59:15.596Z,11.82
2016-04-27T11:00:15.572Z,11.83
2016-04-27T11:01:15.543Z,11.96
2016-04-27T11:02:15.530Z,11.8
2016-04-27T11:03:15.502Z,11.64
2016-04-27T11:04:15.489Z,11.67
2016-04-27T11:05:15.445Z,11.35
2016-04-27T11:06:15.447Z,11.47
2016-04-27T11:07:15.418Z,11.47
2016-04-27T11:08:17.188Z,11.34
2016-04-27T11:09:15.362Z,11.43
2016-04-27T11:10:15.349Z,11.46
2016-04-27T11:11:15.336Z,11.7
2016-04-27T11:12:15.307Z,11.93
2016-04-27T11:13:15.279Z,11.96
2016-04-27T11:14:15.516Z,11.75
2016-04-27T11:15:15.237Z,11.41
2016-04-27T11:16:15.209Z,11.44
2016-04-27T11:17:15.195Z,11.38
2016-04-27T11:18:15.183Z,11.31
2016-04-27T11:19:15.154Z,11.43
2016-04-27T11:20:15.126Z,11.64
2016-04-27T11:21:15.097Z,11.56
2016-04-27T11:22:15.084Z,11.52
2016-04-27T11:23:15.196Z,11.7
2016-04-27T11:24:15.042Z,11.83
2016-04-27T11:25:14.998Z,12.05
2016-04-27T11:26:14.986Z,12.24
2016-04-27T11:27:14.972Z,12.23
2016-04-27T11:28:14.959Z,12.19
2016-04-27T11:29:14.931Z,12.09
2016-04-27T11:30:14.903Z,12.15
2016-04-27T11:31:14.890Z,12.33
2016-04-27T11:32:14.861Z,12.52
2016-04-27T11:33:14.848Z,12.34
2016-04-27T11:34:14.819Z,12.2
2016-04-27T11:35:14.791Z,12.19
2016-04-27T11:36:14.794Z,12.33
2016-04-27T11:37:14.750Z,12.21
2016-04-27T11:38:14.612Z,12.19
2016-04-27T11:39:14.708Z,11.99
2016-04-27T11:40:14.695Z,11.83
2016-04-27T11:41:14.666Z,11.75
2016-04-27T11:42:14.654Z,11.65
2016-04-27T11:43:14.610Z,11.5
2016-04-27T11:44:14.596Z,11.44
2016-04-27T11:45:14.568Z,11.43
2016-04-27T11:46:14.554Z,11.49
2016-04-27T11:47:14.542Z,11.65
2016-04-27T11:48:14.513Z,11.72
2016-04-27T11:49:14.528Z,11.35
2016-04-27T11:50:14.545Z,11.38
2016-04-27T11:51:14.560Z,11.21
2016-04-27T11:52:14.577Z,11.25
2016-04-27T11:53:14.655Z,11.32
2016-04-27T11:54:14.608Z,11.19
2016-04-27T11:55:14.643Z,11.1
2016-04-27T11:56:14.552Z,11.36
2016-04-27T11:57:14.602Z,11.29
2016-04-27T11:58:14.605Z,11.29
2016-04-27T11:59:14.570Z,11.68
2016-04-27T12:00:14.564Z,11.64
2016-04-27T12:01:14.556Z,11.65
2016-04-27T12:02:14.533Z,11.54
2016-04-27T12:03:14.495Z,11.72
2016-04-27T12:04:14.330Z,11.87
2016-04-27T12:05:14.476Z,11.97
2016-04-27T12:06:14.465Z,11.74
2016-04-27T12:07:14.422Z,11.9
2016-04-27T12:08:16.833Z,11.78
2016-04-27T12:09:16.462Z,11.85
2016-04-27T12:10:14.373Z,11.72
2016-04-27T12:11:14.345Z,11.89
2016-04-27T12:12:14.317Z,12.05
2016-04-27T12:13:14.304Z,12.16
2016-04-27T12:14:15.996Z,12.13
2016-04-27T12:15:14.249Z,12.23
2016-04-27T12:16:14.236Z,11.96
2016-04-27T12:17:14.208Z,11.83
2016-04-27T12:18:14.195Z,12.01
2016-04-27T12:19:15.510Z,12.02
2016-04-27T12:20:14.155Z,11.96
2016-04-27T12:21:14.125Z,11.89
2016-04-27T12:22:14.096Z,11.85
2016-04-27T12:23:14.333Z,11.9
2016-04-27T12:24:14.056Z,11.71
2016-04-27T12:25:14.996Z,11.52
2016-04-27T12:26:14.014Z,11.39
2016-04-27T12:27:14.001Z,11.27
2016-04-27T12:28:13.972Z,11.17
2016-04-27T12:29:13.943Z,11.1
2016-04-27T12:30:13.931Z,10.96
2016-04-27T12:31:13.902Z,10.56
2016-04-27T12:32:13.890Z,10.51
2016-04-27T12:33:13.704Z,10.12
2016-04-27T12:34:13.832Z,9.56
2016-04-27T12:35:13.663Z,9.04
2016-04-27T12:36:13.790Z,8.72
2016-04-27T12:37:13.778Z,8.44
2016-04-27T12:38:15.812Z,8.37
2016-04-27T12:39:16.768Z,8.45
2016-04-27T12:40:13.693Z,8.45
2016-04-27T12:41:13.664Z,8.53
2016-04-27T12:42:13.651Z,8.48
2016-04-27T12:43:13.622Z,8.45
2016-04-27T12:44:13.500Z,8.5
2016-04-27T12:45:13.565Z,8.51
2016-04-27T12:46:13.552Z,8.54
2016-04-27T12:47:13.477Z,8.68
2016-04-27T12:48:13.511Z,8.42
2016-04-27T12:49:13.466Z,8.45
2016-04-27T12:50:13.438Z,8.65
2016-04-27T12:51:13.409Z,8.57
2016-04-27T12:52:13.396Z,8.63
2016-04-27T12:53:14.227Z,8.71
2016-04-27T12:54:15.605Z,8.71
2016-04-27T12:55:13.310Z,8.78
2016-04-27T12:56:13.282Z,9.04
2016-04-27T12:57:13.269Z,9.24
2016-04-27T12:58:13.235Z,9.15
2016-04-27T12:59:13.207Z,9.12
2016-04-27T13:00:13.193Z,9.32
2016-04-27T13:01:13.164Z,9.49
2016-04-27T13:02:13.137Z,9.56
2016-04-27T13:03:13.123Z,9.78
2016-04-27T13:04:13.095Z,9.93
2016-04-27T13:05:13.067Z,10.1
2016-04-27T13:06:13.115Z,10.24
2016-04-27T13:07:13.039Z,10.24
2016-04-27T13:08:12.683Z,10.47
2016-04-27T13:09:12.686Z,10.4
2016-04-27T13:10:12.955Z,10.53
2016-04-27T13:11:12.926Z,10.6
2016-04-27T13:12:12.898Z,10.7
2016-04-27T13:13:12.884Z,10.53
2016-04-27T13:14:12.872Z,10.56